Time;durP1;ratioP1;P1;durP2;ratioP2;P2;SDS_P1;SDS_P2;PMS_P1;PMS_P2;Temp;Humidity;BMP_temperature;BMP_pressure;BME280_temperature;BME280_humidity;BME280_pressure;Samples;Min_cycle;Max_cycle;Signal;HPM_P1;HPM_P2
2022/07/26 00:01:25;;;;;;;5.33;4.83;;;;;;;-143.84;66.13;45026.22;5091308;28;21004;-70
2022/07/26 00:03:53;;;;;;;5.57;5.07;;;;;;;-143.84;65.33;45039.53;5091212;28;20447;-70
2022/07/26 00:06:22;;;;;;;7.10;5.50;;;;;;;-143.84;65.72;45041.44;5091197;28;20802;-70
2022/07/26 00:08:49;;;;;;;5.17;4.67;;;;;;;-143.84;65.48;45030.03;5091309;28;20512;-70
2022/07/26 00:11:16;;;;;;;5.03;4.63;;;;;;;-143.84;65.33;45037.66;5090735;28;20534;-70
2022/07/26 00:13:44;;;;;;;4.90;4.60;;;;;;;-143.84;65.42;45049.06;5091241;28;20440;-70
2022/07/26 00:16:11;;;;;;;5.50;5.10;;;;;;;-143.84;65.50;45039.53;5090986;28;20439;-70
2022/07/26 00:18:38;;;;;;;8.77;5.80;;;;;;;-143.84;65.98;45056.69;5091037;28;20435;-70
2022/07/26 00:21:06;;;;;;;10.77;6.43;;;;;;;-143.84;66.03;45035.75;5090791;28;20476;-70
2022/07/26 00:23:35;;;;;;;7.80;6.03;;;;;;;-143.84;65.96;45010.97;5091256;28;20921;-71
2022/07/26 00:26:02;;;;;;;5.50;5.10;;;;;;;-143.84;65.81;45033.84;5091431;28;20436;-72
2022/07/26 00:28:29;;;;;;;6.17;5.67;;;;;;;-143.84;66.21;45043.34;5091121;28;20497;-72
2022/07/26 00:30:56;;;;;;;16.60;5.87;;;;;;;-143.84;66.02;45033.84;5090886;28;20478;-72
2022/07/26 00:33:24;;;;;;;5.97;5.50;;;;;;;-143.84;66.24;45031.94;5091023;28;20436;-72
2022/07/26 00:35:51;;;;;;;15.23;6.17;;;;;;;-143.84;66.13;45030.03;5090871;28;20496;-72
2022/07/26 00:38:18;;;;;;;11.93;5.70;;;;;;;-143.84;65.76;45050.97;5090929;28;20443;-72
2022/07/26 00:40:47;;;;;;;6.53;5.80;;;;;;;-143.84;64.83;45026.22;5090675;28;20440;-72
2022/07/26 00:43:14;;;;;;;5.70;5.23;;;;;;;-143.84;64.63;45026.22;5090438;28;20850;-72
2022/07/26 00:45:41;;;;;;;7.00;6.20;;;;;;;-143.84;64.99;45045.25;5090556;28;20515;-72
2022/07/26 00:48:08;;;;;;;7.80;5.60;;;;;;;-143.84;64.68;45049.06;5090246;28;20909;-72
2022/07/26 00:50:36;;;;;;;7.27;6.47;;;;;;;-143.84;64.96;45031.94;5082234;28;20530;-72
2022/07/26 00:53:03;;;;;;;9.53;5.90;;;;;;;-143.84;65.33;45041.44;5070262;28;20441;-72
2022/07/26 00:55:30;;;;;;;12.10;6.03;;;;;;;-143.84;64.96;45022.41;5070510;28;20518;-72
2022/07/26 00:58:00;;;;;;;7.97;5.83;;;;;;;-143.84;64.96;45045.25;5070361;28;20503;-72
2022/07/26 01:00:29;;;;;;;6.23;5.73;;;;;;;-143.84;64.67;45028.13;5070143;28;20510;-72
2022/07/26 01:02:59;;;;;;;4.83;4.53;;;;;;;-143.84;64.96;45043.34;5070420;28;20534;-72
2022/07/26 01:05:27;;;;;;;7.17;5.70;;;;;;;-143.84;64.78;45049.06;5070206;28;20452;-72
2022/07/26 01:07:55;;;;;;;5.43;4.70;;;;;;;-143.84;65.16;45031.94;5072789;28;20525;-72
2022/07/26 01:10:22;;;;;;;5.80;5.40;;;;;;;-143.84;64.31;45007.19;5090064;28;20903;-72
2022/07/26 01:12:50;;;;;;;6.53;5.70;;;;;;;-143.84;64.14;45060.50;5090265;28;20806;-72
2022/07/26 01:15:18;;;;;;;6.60;5.30;;;;;;;-143.84;63.08;45033.84;5090188;28;20952;-72
2022/07/26 01:17:46;;;;;;;5.77;5.27;;;;;;;-143.84;63.03;45056.69;5090266;28;20871;-72
2022/07/26 01:20:14;;;;;;;7.47;5.70;;;;;;;-143.84;62.77;45037.66;5090553;28;20439;-72
2022/07/26 01:22:42;;;;;;;6.17;5.63;;;;;;;-143.84;63.23;45049.06;5090331;28;20853;-72
2022/07/26 01:25:10;;;;;;;5.20;4.90;;;;;;;-143.84;63.08;45026.22;5090023;28;20494;-72
2022/07/26 01:27:39;;;;;;;5.23;4.73;;;;;;;-143.84;62.51;45028.13;5089851;28;20432;-72
2022/07/26 01:30:10;;;;;;;6.50;5.90;;;;;;;-143.84;62.16;45031.94;5087406;28;20536;-72
2022/07/26 01:32:37;;;;;;;5.60;4.60;;;;;;;-143.84;62.51;45056.69;5087410;28;21296;-72
2022/07/26 01:35:05;;;;;;;7.70;5.60;;;;;;;-143.84;62.28;45031.94;5090220;28;20431;-72
2022/07/26 01:37:32;;;;;;;5.40;4.87;;;;;;;-143.84;62.57;45030.03;5089899;28;20516;-72
2022/07/26 01:40:01;;;;;;;6.07;5.47;;;;;;;-143.84;62.75;45041.44;5089644;28;20874;-72
2022/07/26 01:42:28;;;;;;;6.90;5.37;;;;;;;-143.84;62.97;45039.53;5089515;28;20479;-72
2022/07/26 01:44:55;;;;;;;4.90;4.60;;;;;;;-143.84;62.22;45047.16;5089910;28;20448;-72
2022/07/26 01:47:22;;;;;;;8.70;5.53;;;;;;;-143.84;62.39;45030.03;5072346;28;20495;-72
2022/07/26 01:49:50;;;;;;;4.70;4.40;;;;;;;-143.84;62.47;45030.03;5073316;28;20439;-72
2022/07/26 01:52:17;;;;;;;6.10;5.60;;;;;;;-143.84;62.41;45064.31;5089881;28;20473;-72
2022/07/26 01:54:45;;;;;;;8.10;5.30;;;;;;;-143.84;62.53;45024.31;5089217;28;20436;-72
2022/07/26 01:57:13;;;;;;;5.87;5.47;;;;;;;-143.84;61.86;45016.69;5088854;28;20497;-72
2022/07/26 01:59:41;;;;;;;5.63;5.13;;;;;;;-143.84;61.65;45035.75;5089292;28;20971;-72
2022/07/26 02:02:08;;;;;;;4.83;4.40;;;;;;;-143.84;61.43;45045.25;5071677;28;20529;-72
2022/07/26 02:07:20;;;;;;;6.13;5.63;;;;;;;-143.84;60.76;45026.22;5089531;28;20928;-71
2022/07/26 02:09:47;;;;;;;5.80;4.90;;;;;;;-143.84;60.84;45045.25;5089115;28;21342;-71
2022/07/26 02:12:15;;;;;;;5.87;5.37;;;;;;;-143.84;60.93;45031.94;5089615;28;20442;-71
2022/07/26 02:14:42;;;;;;;5.30;4.90;;;;;;;-143.84;60.59;45033.84;5089471;28;20443;-71
2022/07/26 02:17:10;;;;;;;5.33;4.93;;;;;;;-143.84;60.38;45012.88;5089594;28;20436;-71
2022/07/26 02:19:37;;;;;;;9.10;5.37;;;;;;;-143.84;60.27;45043.34;5069510;28;20452;-71
2022/07/26 02:22:05;;;;;;;10.90;5.00;;;;;;;-143.84;60.18;45035.75;5068992;28;20545;-72
2022/07/26 02:24:33;;;;;;;5.80;5.30;;;;;;;-143.84;59.82;45037.66;5067793;28;20445;-72
2022/07/26 02:27:01;;;;;;;6.70;4.80;;;;;;;-143.84;59.10;45049.06;5068330;28;20441;-72
2022/07/26 02:29:30;;;;;;;5.73;5.23;;;;;;;-143.84;59.19;45014.78;5069034;28;20490;-72
2022/07/26 02:31:58;;;;;;;6.33;4.50;;;;;;;-143.84;59.00;45028.13;5069155;28;20436;-72
2022/07/26 02:34:25;;;;;;;6.40;5.80;;;;;;;-143.84;59.10;45022.41;5068789;28;20440;-72
2022/07/26 02:36:53;;;;;;;6.20;5.73;;;;;;;-143.84;58.96;45030.03;5068899;28;20448;-72
2022/07/26 02:39:20;;;;;;;5.83;5.20;;;;;;;-143.84;58.74;45033.84;5068182;28;20433;-72
2022/07/26 02:41:48;;;;;;;5.07;4.67;;;;;;;-143.84;58.27;45050.97;5076468;28;21031;-72
2022/07/26 02:44:15;;;;;;;11.17;5.47;;;;;;;-143.84;58.00;45039.53;5079149;28;20440;-72
2022/07/26 02:46:43;;;;;;;5.60;5.20;;;;;;;-143.84;58.07;45031.94;5089006;28;20451;-72
2022/07/26 02:49:11;;;;;;;8.13;5.60;;;;;;;-143.84;58.10;45031.94;5089188;28;20448;-71
2022/07/26 02:51:38;;;;;;;7.17;5.20;;;;;;;-143.84;57.84;45030.03;5089416;28;20440;-71
2022/07/26 02:54:05;;;;;;;6.83;5.60;;;;;;;-143.84;57.88;45052.88;5089354;28;20501;-71
2022/07/26 02:56:33;;;;;;;6.43;5.50;;;;;;;-143.84;57.86;45016.69;5088835;28;20918;-71
2022/07/26 02:59:00;;;;;;;6.80;5.77;;;;;;;-143.84;57.56;45033.84;5089268;28;20445;-71
2022/07/26 03:01:27;;;;;;;5.70;5.23;;;;;;;-143.84;57.14;45030.03;5071892;28;20514;-71
2022/07/26 03:03:56;;;;;;;6.67;5.13;;;;;;;-143.84;56.98;45026.22;5084970;28;20510;-72
2022/07/26 03:06:23;;;;;;;5.27;4.87;;;;;;;-143.84;55.94;45026.22;5092379;28;20504;-72
2022/07/26 03:08:51;;;;;;;15.80;6.20;;;;;;;-143.84;55.43;44997.66;5093089;28;20838;-72
2022/07/26 03:11:18;;;;;;;7.30;4.93;;;;;;;-143.84;55.08;45041.44;5110449;28;20547;-71
2022/07/26 03:13:45;;;;;;;5.60;5.17;;;;;;;-143.84;54.68;45018.59;5113221;28;20438;-71
2022/07/26 03:16:12;;;;;;;6.33;5.27;;;;;;;-143.84;54.43;45045.25;5113192;28;21142;-71
2022/07/26 03:18:39;;;;;;;7.40;5.00;;;;;;;-143.84;54.66;45016.69;5113189;28;20439;-71
2022/07/26 03:21:08;;;;;;;6.23;5.73;;;;;;;-143.84;55.00;45050.97;5113241;28;20438;-71
2022/07/26 03:23:36;;;;;;;5.93;5.27;;;;;;;-143.84;55.00;45026.22;5112918;28;20478;-71
2022/07/26 03:26:04;;;;;;;5.47;5.07;;;;;;;-143.84;55.36;45031.94;5113047;28;20541;-72
2022/07/26 03:28:31;;;;;;;8.20;5.50;;;;;;;-143.84;55.57;45022.41;5112508;28;20450;-72
2022/07/26 03:30:58;;;;;;;5.63;5.33;;;;;;;-143.84;55.49;45012.88;5112834;28;20897;-72
2022/07/26 03:33:26;;;;;;;5.70;5.30;;;;;;;-143.84;55.00;45005.28;5112512;28;20968;-71
2022/07/26 03:35:53;;;;;;;5.33;5.03;;;;;;;-143.84;54.44;45007.19;5112459;28;20443;-72
2022/07/26 03:38:22;;;;;;;5.33;4.93;;;;;;;-143.84;54.29;45031.94;5111719;28;20435;-72
2022/07/26 03:40:49;;;;;;;5.47;5.07;;;;;;;-143.84;53.73;45030.03;5111502;28;20446;-72
2022/07/26 03:43:18;;;;;;;8.77;5.47;;;;;;;-143.84;52.73;45026.22;5112094;28;20475;-72
2022/07/26 03:45:45;;;;;;;15.60;6.20;;;;;;;-143.84;51.93;45024.31;5092045;28;20448;-72
2022/07/26 03:48:12;;;;;;;9.67;5.20;;;;;;;-143.84;50.81;45033.84;5091872;28;20436;-72
2022/07/26 03:50:39;;;;;;;7.63;5.83;;;;;;;-143.84;50.38;45007.19;5090529;28;21023;-72
2022/07/26 03:53:06;;;;;;;7.83;5.30;;;;;;;-143.84;48.75;45020.50;5090290;28;21022;-72
2022/07/26 03:58:19;;;;;;;8.67;5.20;;;;;;;-143.84;43.87;44974.81;5091721;28;20428;-71
2022/07/26 04:00:47;;;;;;;5.20;4.77;;;;;;;-143.84;42.08;44971.00;5091527;28;20446;-71
2022/07/26 04:03:14;;;;;;;5.73;5.23;;;;;;;-143.84;40.48;44948.16;5091357;28;20479;-72
2022/07/26 04:05:41;;;;;;;8.00;4.80;;;;;;;-143.84;39.99;44929.09;5091795;28;20424;-72
2022/07/26 04:08:08;;;;;;;6.30;4.50;;;;;;;-143.84;38.96;44927.19;5091627;28;20482;-72
2022/07/26 04:10:37;;;;;;;4.10;3.90;;;;;;;-143.84;37.79;44919.59;5091073;28;20897;-72
2022/07/26 04:13:04;;;;;;;5.00;4.43;;;;;;;-143.84;37.75;44894.84;5091188;28;20448;-72
2022/07/26 04:15:31;;;;;;;9.80;4.20;;;;;;;-143.84;37.36;44921.50;5091099;28;20953;-72
2022/07/26 04:17:58;;;;;;;9.60;4.43;;;;;;;-143.84;37.33;44910.06;5090467;28;20436;-72
2022/07/26 04:20:25;;;;;;;9.87;4.00;;;;;;;-143.84;36.87;44908.16;5091295;28;20836;-72
2022/07/26 04:22:52;;;;;;;5.23;4.33;;;;;;;-143.84;37.07;44904.34;5090910;28;20521;-72
2022/07/26 04:25:19;;;;;;;4.63;4.10;;;;;;;-143.84;35.96;44900.53;5100312;28;20454;-72
2022/07/26 04:27:48;;;;;;;4.80;4.40;;;;;;;-143.84;36.27;44892.94;5111449;28;20435;-72
2022/07/26 04:30:15;;;;;;;4.80;4.27;;;;;;;-143.84;35.76;44875.78;5111512;28;20447;-72
2022/07/26 04:32:43;;;;;;;4.57;4.17;;;;;;;-143.84;36.22;44873.88;5111404;28;20812;-72
2022/07/26 04:35:10;;;;;;;11.40;3.93;;;;;;;-143.84;35.54;44892.94;5111261;28;20457;-72
2022/07/26 04:37:41;;;;;;;11.53;4.77;;;;;;;-143.84;35.50;44889.13;5111044;28;20432;-72
2022/07/26 04:40:11;;;;;;;10.40;4.40;;;;;;;-143.84;35.24;44885.31;5111020;28;20471;-72
2022/07/26 04:42:55;;;;;;;11.30;4.30;;;;;;;-143.84;35.20;44864.38;5076929;28;20483;-72
2022/07/26 04:45:22;;;;;;;16.03;4.37;;;;;;;-143.84;35.33;44856.75;5111075;28;20454;-72
2022/07/26 04:47:49;;;;;;;10.10;4.70;;;;;;;-143.84;35.19;44875.78;5110976;28;20478;-72
2022/07/26 04:50:17;;;;;;;15.30;4.80;;;;;;;-143.84;35.31;44862.47;5110973;28;20806;-72
2022/07/26 04:52:44;;;;;;;22.03;4.80;;;;;;;-143.84;35.35;44854.84;5110689;28;20423;-73
2022/07/26 04:55:12;;;;;;;4.50;4.10;;;;;;;-143.84;35.58;44854.84;5111192;28;20477;-73
2022/07/26 04:57:39;;;;;;;10.00;4.70;;;;;;;-143.84;35.25;44851.03;5110856;28;20447;-73
2022/07/26 05:00:11;;;;;;;5.03;4.73;;;;;;;-143.84;35.51;44851.03;5110933;28;20500;-73
2022/07/26 05:02:39;;;;;;;8.10;4.13;;;;;;;-143.84;35.02;44841.53;5110967;28;20463;-73
2022/07/26 05:05:07;;;;;;;6.00;4.70;;;;;;;-143.84;34.73;44843.44;5110658;28;20488;-76
2022/07/26 05:07:40;;;;;;;7.53;4.80;;;;;;;-143.84;34.65;44845.31;5109453;28;20439;-72
2022/07/26 05:10:09;;;;;;;12.80;4.33;;;;;;;-143.84;34.51;44854.84;5089199;28;20556;-72
2022/07/26 05:12:36;;;;;;;10.03;5.10;;;;;;;-143.84;34.43;44862.47;5071528;28;20447;-72
2022/07/26 05:15:04;;;;;;;5.67;4.60;;;;;;;-143.84;34.23;44832.00;5089313;28;20474;-71
2022/07/26 05:17:33;;;;;;;9.20;5.23;;;;;;;-143.84;34.13;44841.53;5087323;28;20455;-72
2022/07/26 05:20:00;;;;;;;9.00;4.60;;;;;;;-143.84;34.18;44866.28;5088059;28;20456;-72
2022/07/26 05:22:28;;;;;;;5.30;4.83;;;;;;;-143.84;34.68;44847.22;5087748;28;20448;-72
2022/07/26 05:24:55;;;;;;;5.37;4.97;;;;;;;-143.84;34.35;44828.19;5083164;28;20456;-72
2022/07/26 05:27:22;;;;;;;7.23;5.43;;;;;;;-143.84;34.23;44851.03;5085424;28;20969;-72
2022/07/26 05:29:49;;;;;;;15.40;5.20;;;;;;;-143.84;34.31;44818.66;5088102;28;20999;-72
2022/07/26 05:32:17;;;;;;;9.67;4.53;;;;;;;-143.84;34.01;44830.09;5088699;28;20447;-72
2022/07/26 05:34:46;;;;;;;5.13;4.63;;;;;;;-143.84;33.61;44843.44;5087598;28;20448;-72
2022/07/26 05:37:13;;;;;;;5.80;5.30;;;;;;;-143.84;33.98;44841.53;5089172;28;20455;-72
2022/07/26 05:39:41;;;;;;;5.10;4.70;;;;;;;-143.84;33.97;44795.81;5089089;28;20516;-72
2022/07/26 05:42:08;;;;;;;5.80;5.40;;;;;;;-143.84;34.13;44835.81;5089231;28;20513;-72
2022/07/26 05:44:35;;;;;;;6.40;5.80;;;;;;;-143.84;33.96;44852.94;5086484;28;20486;-72
2022/07/26 05:47:02;;;;;;;9.47;5.50;;;;;;;-143.84;34.20;44792.00;5089075;28;20509;-72
2022/07/26 05:49:30;;;;;;;6.00;5.47;;;;;;;-143.84;34.12;44786.31;5083394;28;20851;-72
2022/07/26 05:51:58;;;;;;;7.67;4.93;;;;;;;-143.84;33.71;44830.09;5069715;28;20429;-72
2022/07/26 05:54:25;;;;;;;11.97;5.13;;;;;;;-143.84;33.83;44788.22;5069459;28;20437;-72
2022/07/26 05:56:52;;;;;;;6.30;4.80;;;;;;;-143.84;33.09;44774.88;5069409;28;20445;-72
2022/07/26 05:59:20;;;;;;;7.37;5.20;;;;;;;-143.84;33.65;44824.38;5069522;28;20931;-72
2022/07/26 06:01:47;;;;;;;10.40;4.90;;;;;;;-143.84;33.11;44805.34;5069577;28;20499;-72
2022/07/26 06:04:14;;;;;;;6.60;5.83;;;;;;;-143.84;33.57;44799.63;5069171;28;20867;-72
2022/07/26 06:06:41;;;;;;;7.03;5.20;;;;;;;-143.84;34.06;44805.34;5069237;28;20510;-72
2022/07/26 06:09:10;;;;;;;7.70;5.73;;;;;;;-143.84;34.34;44805.34;5069223;28;21027;-72
2022/07/26 06:11:37;;;;;;;9.23;4.97;;;;;;;-143.84;34.02;44826.28;5068932;28;20481;-72
2022/07/26 06:14:04;;;;;;;10.93;5.60;;;;;;;-143.84;33.84;44830.09;5069311;28;20444;-72
2022/07/26 06:16:31;;;;;;;9.17;5.87;;;;;;;-143.84;33.15;44811.06;5069217;28;20958;-72
2022/07/26 06:18:58;;;;;;;7.63;5.80;;;;;;;-143.84;34.51;44830.09;5068912;28;20474;-72
2022/07/26 06:21:26;;;;;;;9.97;6.10;;;;;;;-143.84;34.90;44833.91;5069124;28;20970;-72
2022/07/26 06:23:53;;;;;;;11.47;7.83;;;;;;;-143.84;35.32;44807.25;5068764;28;20476;-72
2022/07/26 06:26:22;;;;;;;11.37;6.87;;;;;;;-143.84;35.25;44843.44;5069105;28;20436;-72
2022/07/26 06:28:50;;;;;;;15.23;6.90;;;;;;;-143.84;35.36;44833.91;5068794;28;20447;-73
2022/07/26 06:31:18;;;;;;;9.40;7.20;;;;;;;-143.84;35.92;44824.38;5068908;28;20448;-72
2022/07/26 06:33:45;;;;;;;16.00;7.10;;;;;;;-143.84;35.76;44847.22;5068807;28;20449;-72
2022/07/26 06:36:12;;;;;;;12.03;6.33;;;;;;;-143.84;35.25;44839.63;5068716;28;20433;-72
2022/07/26 06:38:39;;;;;;;12.17;6.70;;;;;;;-143.84;34.99;44811.06;5071330;28;21023;-72
2022/07/26 06:41:07;;;;;;;25.87;7.80;;;;;;;-143.84;36.12;44824.38;5091871;28;20435;-72
2022/07/26 06:43:35;;;;;;;13.03;7.20;;;;;;;-143.84;35.86;44841.53;5092131;28;20475;-72
2022/07/26 06:46:02;;;;;;;19.07;7.70;;;;;;;-143.84;36.50;44849.13;5091706;28;20537;-72
2022/07/26 06:48:30;;;;;;;11.20;6.73;;;;;;;-143.84;35.95;44841.53;5071962;28;20444;-72
2022/07/26 06:50:57;;;;;;;13.93;8.20;;;;;;;-143.84;35.94;44809.16;5072301;28;20440;-72
2022/07/26 06:53:24;;;;;;;14.40;6.87;;;;;;;-143.84;36.37;44830.09;5072442;28;20452;-72
2022/07/26 06:55:51;;;;;;;16.93;8.30;;;;;;;-143.84;36.67;44851.03;5072437;28;20442;-72
2022/07/26 06:58:19;;;;;;;25.87;7.60;;;;;;;-143.84;36.24;44837.72;5072393;28;20502;-72
2022/07/26 07:00:48;;;;;;;9.40;7.07;;;;;;;-143.84;36.46;44818.66;5072283;28;21052;-72
2022/07/26 07:03:15;;;;;;;12.70;7.60;;;;;;;-143.84;35.79;44828.19;5071500;28;20969;-72
2022/07/26 07:05:42;;;;;;;8.27;6.50;;;;;;;-143.84;35.38;44801.53;5072351;28;20494;-72
2022/07/26 07:08:09;;;;;;;7.83;7.13;;;;;;;-143.84;35.84;44828.19;5072123;28;20482;-72
2022/07/26 07:10:36;;;;;;;10.57;7.23;;;;;;;-143.84;36.02;44805.34;5071816;28;21021;-72
2022/07/26 07:13:04;;;;;;;12.67;7.40;;;;;;;-143.84;35.43;44805.34;5072157;28;20868;-72
2022/07/26 07:15:31;;;;;;;7.67;6.90;;;;;;;-143.84;35.58;44862.47;5071975;28;20786;-72
2022/07/26 07:17:59;;;;;;;9.53;6.37;;;;;;;-143.84;36.20;44839.63;5071907;28;20436;-71
2022/07/26 07:20:27;;;;;;;11.83;7.10;;;;;;;-143.84;36.36;44826.28;5072992;28;20452;-71
2022/07/26 07:22:54;;;;;;;7.20;6.50;;;;;;;-143.84;36.22;44812.97;5072986;28;20436;-71
2022/07/26 07:25:21;;;;;;;13.00;7.47;;;;;;;-143.84;35.76;44820.56;5072699;28;21001;-71
2022/07/26 07:27:48;;;;;;;12.23;7.10;;;;;;;-143.84;35.79;44828.19;5072362;28;20468;-70
2022/07/26 07:30:16;;;;;;;14.03;7.47;;;;;;;-143.84;35.57;44809.16;5072276;28;20670;-70
2022/07/26 07:32:43;;;;;;;7.07;5.67;;;;;;;-143.84;35.67;44828.19;5072690;28;20444;-71
2022/07/26 07:35:12;;;;;;;9.80;6.67;;;;;;;-143.84;35.65;44801.53;5072769;28;20437;-71
2022/07/26 07:37:39;;;;;;;9.23;7.23;;;;;;;-143.84;36.72;44843.44;5072861;28;20442;-71
2022/07/26 07:40:07;;;;;;;8.53;7.30;;;;;;;-143.84;37.63;44807.25;5072949;28;20445;-71
2022/07/26 07:42:34;;;;;;;8.90;7.13;;;;;;;-143.84;38.26;44841.53;5054940;28;20433;-71
2022/07/26 07:45:02;;;;;;;15.43;7.67;;;;;;;-143.84;38.47;44862.47;5072073;28;20483;-70
2022/07/26 07:47:29;;;;;;;11.93;7.87;;;;;;;-143.84;38.31;44879.59;5072835;28;20429;-70
2022/07/26 07:49:56;;;;;;;8.80;8.10;;;;;;;-143.84;38.72;44824.38;5072540;28;20448;-71
2022/07/26 07:52:24;;;;;;;17.03;7.93;;;;;;;-143.84;38.61;44860.56;5080243;28;20444;-70
2022/07/26 07:54:52;;;;;;;10.67;7.57;;;;;;;-143.84;38.49;44862.47;5092761;28;20451;-70
2022/07/26 07:57:19;;;;;;;9.50;7.00;;;;;;;-143.84;39.43;44841.53;5092426;28;20448;-71
2022/07/26 07:59:46;;;;;;;10.97;8.07;;;;;;;-143.84;41.31;44847.22;5092424;28;20931;-71
2022/07/26 08:02:14;;;;;;;8.33;7.10;;;;;;;-143.84;39.63;44860.56;5092231;28;21263;-71
2022/07/26 08:04:41;;;;;;;7.43;6.73;;;;;;;-143.84;40.56;44871.97;5091833;28;20464;-71
2022/07/26 08:07:09;;;;;;;8.00;7.17;;;;;;;-143.84;40.32;44849.13;5091518;28;20451;-71
2022/07/26 08:09:37;;;;;;;8.13;7.43;;;;;;;-143.84;41.31;44839.63;5087059;28;21667;-71
2022/07/26 08:12:05;;;;;;;8.33;6.93;;;;;;;-143.84;41.36;44849.13;5091915;28;20443;-71
2022/07/26 08:14:32;;;;;;;7.77;7.00;;;;;;;-143.84;43.73;44856.75;5091245;28;20800;-71
2022/07/26 08:16:59;;;;;;;9.13;7.10;;;;;;;-143.84;45.21;44858.66;5090635;28;20446;-71
2022/07/26 08:19:27;;;;;;;9.80;8.80;;;;;;;-143.84;46.33;44860.56;5090399;28;20424;-71
2022/07/26 08:21:54;;;;;;;9.80;9.00;;;;;;;-143.84;46.49;44854.84;5091756;28;20436;-71
2022/07/26 08:24:21;;;;;;;10.23;9.33;;;;;;;-143.84;47.70;44852.94;5091217;28;20484;-71
2022/07/26 08:26:52;;;;;;;24.83;9.17;;;;;;;-143.84;46.70;44839.63;5091357;28;20451;-71
2022/07/26 08:29:19;;;;;;;9.60;8.80;;;;;;;-143.84;47.26;44856.75;5091004;28;20447;-71
2022/07/26 08:31:47;;;;;;;9.60;7.40;;;;;;;-143.84;43.20;44887.22;5085069;28;21055;-71
2022/07/26 08:34:16;;;;;;;7.20;6.60;;;;;;;-143.84;39.73;44839.63;5079934;28;20449;-71
2022/07/26 08:36:43;;;;;;;13.00;8.90;;;;;;;-143.84;42.13;44864.38;5083787;28;20536;-71
2022/07/26 08:39:11;;;;;;;8.87;8.13;;;;;;;-143.84;45.10;44847.22;5082419;28;20454;-71
2022/07/26 08:41:39;;;;;;;10.43;9.53;;;;;;;-143.84;46.61;44847.22;5078205;28;20496;-71
2022/07/26 08:44:09;;;;;;;8.67;7.77;;;;;;;-143.84;44.45;44894.84;5088011;28;20578;-71
2022/07/26 08:46:38;;;;;;;9.13;8.10;;;;;;;-143.84;45.54;44881.50;5084744;28;20487;-71
2022/07/26 08:49:06;;;;;;;7.60;7.00;;;;;;;-143.84;45.33;44843.44;5083790;28;20432;-71
2022/07/26 08:51:35;;;;;;;11.20;8.10;;;;;;;-143.84;44.55;44881.50;5087187;28;20440;-71
2022/07/26 08:54:02;;;;;;;8.43;7.23;;;;;;;-143.84;44.73;44892.94;5088746;28;20461;-71
2022/07/26 08:56:30;;;;;;;8.80;7.73;;;;;;;-143.84;44.09;44845.31;5084467;28;20451;-71
2022/07/26 08:58:57;;;;;;;6.83;6.23;;;;;;;-143.84;44.55;44885.31;5085043;28;20501;-71
2022/07/26 09:01:25;;;;;;;9.00;6.50;;;;;;;-143.84;41.40;44868.19;5084052;28;20440;-71
2022/07/26 09:03:53;;;;;;;6.67;5.60;;;;;;;-143.84;42.03;44889.13;5083966;28;20468;-71
2022/07/26 09:06:22;;;;;;;7.80;7.10;;;;;;;-143.84;41.60;44873.88;5081654;28;20445;-71
2022/07/26 09:08:51;;;;;;;17.03;7.30;;;;;;;-143.84;42.28;44870.09;5098665;28;20436;-71
2022/07/26 09:11:32;;;;;;;9.00;6.30;;;;;;;-143.84;43.19;44851.03;5094874;28;20484;-71
2022/07/26 09:14:01;;;;;;;6.80;6.20;;;;;;;-143.84;43.57;44845.31;5090579;28;20512;-72
2022/07/26 09:16:30;;;;;;;7.23;6.33;;;;;;;-143.84;44.20;44873.88;5089788;28;20450;-73
2022/07/26 09:19:17;;;;;;;5.93;5.37;;;;;;;-143.84;44.23;44870.09;5102982;28;20516;-72
2022/07/26 09:21:46;;;;;;;5.87;5.30;;;;;;;-143.84;41.79;44864.38;5093778;28;20961;-72
2022/07/26 09:24:13;;;;;;;6.60;6.10;;;;;;;-143.84;41.78;44885.31;5094725;28;20464;-72
2022/07/26 09:26:40;;;;;;;7.80;6.03;;;;;;;-143.84;41.88;44871.97;5089377;28;20520;-72
2022/07/26 09:29:10;;;;;;;5.63;5.17;;;;;;;-143.84;41.63;44870.09;5090364;28;20497;-72
2022/07/26 09:31:39;;;;;;;13.10;5.43;;;;;;;-143.84;43.30;44864.38;5097261;28;20944;-70
2022/07/26 09:34:07;;;;;;;6.47;5.37;;;;;;;-143.84;43.36;44881.50;5084388;28;20963;-70
2022/07/26 09:36:50;;;;;;;7.80;5.27;;;;;;;-143.84;42.62;44877.69;5074850;28;20452;-71
2022/07/26 09:39:17;;;;;;;4.90;4.60;;;;;;;-143.84;44.33;44885.31;5083547;28;20465;-71
2022/07/26 09:41:45;;;;;;;9.03;5.07;;;;;;;-143.84;43.69;44877.69;5078437;28;20437;-71
2022/07/26 09:44:22;;;;;;;6.63;5.27;;;;;;;-143.84;43.86;44870.09;5078024;28;20508;-71
2022/07/26 09:46:55;;;;;;;5.50;5.10;;;;;;;-143.84;42.76;44862.47;5078896;28;20448;-71
2022/07/26 09:49:23;;;;;;;6.23;5.57;;;;;;;-143.84;44.66;44870.09;5082924;28;20444;-71
2022/07/26 09:51:52;;;;;;;8.13;5.30;;;;;;;-143.84;44.36;44875.78;5084818;28;20436;-71
2022/07/26 09:54:34;;;;;;;5.50;5.10;;;;;;;-143.84;42.94;44858.66;5081613;28;20506;-71
2022/07/26 09:57:02;;;;;;;5.67;5.17;;;;;;;-143.84;45.37;44870.09;5076579;28;20475;-71
2022/07/26 09:59:30;;;;;;;4.90;4.50;;;;;;;-143.84;43.42;44862.47;5086575;28;20930;-72
2022/07/26 10:01:59;;;;;;;5.07;4.67;;;;;;;-143.84;42.45;44849.13;5082557;28;20448;-71
2022/07/26 10:04:27;;;;;;;8.00;4.80;;;;;;;-143.84;42.83;44871.97;5087190;28;20480;-70
2022/07/26 10:06:56;;;;;;;6.83;5.30;;;;;;;-143.84;45.12;44868.19;5077386;28;20992;-71
2022/07/26 10:09:24;;;;;;;6.33;5.50;;;;;;;-143.84;45.13;44843.44;5075860;28;20502;-71
2022/07/26 10:12:01;;;;;;;5.47;4.97;;;;;;;-143.84;43.54;44883.41;5078013;28;20527;-71
2022/07/26 10:14:39;;;;;;;5.67;4.90;;;;;;;-143.84;42.52;44873.88;5077465;28;20508;-71
2022/07/26 10:17:46;;;;;;;5.10;4.70;;;;;;;-143.84;39.07;44877.69;5079259;28;20444;-71
2022/07/26 10:20:42;;;;;;;4.70;4.30;;;;;;;-143.84;40.40;44862.47;5096850;28;20956;-71
2022/07/26 10:23:39;;;;;;;17.40;5.13;;;;;;;-143.84;42.91;44906.25;5094965;28;20537;-71
2022/07/26 10:26:08;;;;;;;5.43;4.70;;;;;;;-143.84;43.05;44898.66;5108618;28;20479;-71
2022/07/26 10:28:36;;;;;;;9.60;5.00;;;;;;;-143.84;44.60;44896.75;5106278;28;20466;-71
2022/07/26 10:31:28;;;;;;;6.47;4.87;;;;;;;-143.84;44.11;44923.41;5099550;28;20427;-71
2022/07/26 10:33:56;;;;;;;5.80;4.67;;;;;;;-143.84;43.90;44911.97;5089826;28;20472;-71
2022/07/26 10:36:28;;;;;;;7.97;4.90;;;;;;;-143.84;42.79;44900.53;5089151;28;20431;-71
2022/07/26 10:39:10;;;;;;;4.70;4.20;;;;;;;-143.84;44.53;44904.34;5088975;28;21003;-71
2022/07/26 10:41:40;;;;;;;5.70;4.60;;;;;;;-143.84;46.67;44894.84;5088598;28;20443;-71
2022/07/26 10:44:23;;;;;;;6.03;4.83;;;;;;;-143.84;42.99;44908.16;5088512;28;20447;-71
2022/07/26 10:47:01;;;;;;;9.33;5.10;;;;;;;-143.84;47.66;44896.75;5088487;28;20454;-71
2022/07/26 10:49:34;;;;;;;5.27;4.90;;;;;;;-143.84;44.84;44906.25;5088332;28;20443;-71
2022/07/26 10:52:17;;;;;;;5.23;4.70;;;;;;;-143.84;47.88;44898.66;5087652;28;20489;-71
2022/07/26 10:55:15;;;;;;;6.33;4.80;;;;;;;-143.84;49.87;44896.75;5082894;28;20467;-71
2022/07/26 10:57:44;;;;;;;12.60;5.50;;;;;;;-143.84;48.03;44910.06;5085180;28;21011;-71
2022/07/26 11:00:20;;;;;;;7.27;6.30;;;;;;;-143.84;47.00;44883.41;5087357;28;20452;-71
2022/07/26 11:02:54;;;;;;;6.43;5.83;;;;;;;-143.84;47.73;44904.34;5071408;28;20451;-71
2022/07/26 11:05:27;;;;;;;6.17;5.47;;;;;;;-143.84;46.64;44910.06;5087304;28;20631;-71
2022/07/26 11:08:08;;;;;;;7.57;6.87;;;;;;;-143.84;49.80;44915.78;5088663;28;20458;-71
2022/07/26 11:10:39;;;;;;;6.50;6.00;;;;;;;-143.84;48.69;44906.25;5088741;28;20483;-71
2022/07/26 11:13:12;;;;;;;6.03;5.53;;;;;;;-143.84;49.27;44904.34;5088739;28;20448;-71
2022/07/26 11:15:42;;;;;;;7.90;6.20;;;;;;;-143.84;51.53;44913.88;5088896;28;20508;-71
2022/07/26 11:18:21;;;;;;;6.20;5.70;;;;;;;-143.84;51.08;44919.59;5088727;28;20536;-71
2022/07/26 11:20:52;;;;;;;7.60;5.60;;;;;;;-143.84;53.60;44908.16;5086903;28;20896;-71
2022/07/26 11:23:31;;;;;;;6.57;5.80;;;;;;;-143.84;49.34;44904.34;5068391;28;20467;-71
2022/07/26 11:26:03;;;;;;;6.93;5.57;;;;;;;-143.84;51.43;44898.66;5069665;28;20484;-71
2022/07/26 11:28:30;;;;;;;8.93;5.57;;;;;;;-143.84;51.53;44936.72;5083071;28;20447;-71